Aérodrome :
LOGIN :

S'inscrire | Disclaimer

   EN    FR    IT 

 










Légende :    VFR   VFR Marginal   IFR   IFR Intensif   IFR Très Intensif
Visi : 
Plafond : 
>= 8 km
>= 3000ft
5 à 8 km
1000 à 3000 ft
1500m à 5 km
500 à 1000 ft
800 à 1500m
200 à 500 ft
< 800m
< 200 ft
Symboles :   Orages  Brouillard  Fortes neiges  Fortes précipitations  Vent > 20 kt
SIGMETs :   Divers  Orages  Givrage  Turbulence  Onde Orograph.  Cendres Volcan.






- Altitude de l'aérodrome : 1860 ft
- Code IATA : GRX


LEGR - Granada

DERNIER METAR :
  • 290630Z 22001KT CAVOK 09/05 Q1018

METARs EXPIRÉS :
  • 290600Z VRB01KT CAVOK 10/06 Q1018
  • 290530Z 00000KT CAVOK 10/05 Q1018
  • 290500Z VRB02KT CAVOK 10/06 Q1018
  • 290430Z VRB01KT CAVOK 10/06 Q1018
  • 290400Z VRB01KT CAVOK 10/06 Q1017

TAF TAF LEGR
Valide du 29 à 03h jusqu'au 30 à 03h UTC


290200Z 2903/3003 VRB02KT CAVOK TX31/2915Z TN10/2906Z
PROB40
TEMPO 2917/2921 18010KT



MET'MAP, la Météo Aéronautique d'un coup d'oeil ! - Copyright ORBIFLY Décembre 2007 - Disclaimer

ORBIFLY MET'MAP TEAM :

Programmation & Développement : Alexandra Zaïnal
Sur une idée originale de : Baudouin d'Aumeries
Assistance à la programmation : Marc-Olivier Méhu
Soutien technique & logistique : Manuel Goepfert

Contact : metmap@orbifly.com




SOURCES & CREDITS :

   NOAA